sensor_id;sensor_type;location;lat;lon;timestamp;temperature;humidity
19728;DHT22;10015;52.530;13.390;2023-11-21T00:01:24;9.60;99.90
19728;DHT22;10015;52.530;13.390;2023-11-21T00:03:50;9.60;99.90
19728;DHT22;10015;52.530;13.390;2023-11-21T00:06:16;9.60;99.90
19728;DHT22;10015;52.530;13.390;2023-11-21T00:08:42;9.60;99.90
19728;DHT22;10015;52.530;13.390;2023-11-21T00:11:08;9.60;99.90
19728;DHT22;10015;52.530;13.390;2023-11-21T00:13:34;9.60;99.90
19728;DHT22;10015;52.530;13.390;2023-11-21T00:16:00;9.60;99.90
19728;DHT22;10015;52.530;13.390;2023-11-21T00:18:26;9.60;99.90
19728;DHT22;10015;52.530;13.390;2023-11-21T00:20:52;9.60;99.90
19728;DHT22;10015;52.530;13.390;2023-11-21T00:23:18;9.50;99.90
19728;DHT22;10015;52.530;13.390;2023-11-21T00:25:44;9.40;99.90
19728;DHT22;10015;52.530;13.390;2023-11-21T00:28:10;9.40;99.90
19728;DHT22;10015;52.530;13.390;2023-11-21T00:30:35;9.40;99.90
19728;DHT22;10015;52.530;13.390;2023-11-21T00:33:01;9.30;99.90
19728;DHT22;10015;52.530;13.390;2023-11-21T00:35:27;9.20;99.90
19728;DHT22;10015;52.530;13.390;2023-11-21T00:37:53;9.30;99.90
19728;DHT22;10015;52.530;13.390;2023-11-21T00:40:19;9.20;99.90
19728;DHT22;10015;52.530;13.390;2023-11-21T00:42:47;9.20;99.90
19728;DHT22;10015;52.530;13.390;2023-11-21T00:45:13;9.20;99.90
19728;DHT22;10015;52.530;13.390;2023-11-21T00:47:39;9.20;99.90
19728;DHT22;10015;52.530;13.390;2023-11-21T00:50:07;9.30;99.90
19728;DHT22;10015;52.530;13.390;2023-11-21T00:52:33;9.20;99.90
19728;DHT22;10015;52.530;13.390;2023-11-21T00:54:59;9.10;99.90
19728;DHT22;10015;52.530;13.390;2023-11-21T00:57:26;9.10;99.90
19728;DHT22;10015;52.530;13.390;2023-11-21T00:59:52;9.10;99.90
19728;DHT22;10015;52.530;13.390;2023-11-21T01:02:18;9.10;99.90
19728;DHT22;10015;52.530;13.390;2023-11-21T01:04:44;9.00;99.90
19728;DHT22;10015;52.530;13.390;2023-11-21T01:07:10;9.00;99.90
19728;DHT22;10015;52.530;13.390;2023-11-21T01:09:36;9.10;99.90
19728;DHT22;10015;52.530;13.390;2023-11-21T01:12:02;9.00;99.90
19728;DHT22;10015;52.530;13.390;2023-11-21T01:14:28;8.90;99.90
19728;DHT22;10015;52.530;13.390;2023-11-21T01:16:54;8.90;99.90
19728;DHT22;10015;52.530;13.390;2023-11-21T01:19:20;8.80;99.90
19728;DHT22;10015;52.530;13.390;2023-11-21T01:21:46;8.90;99.90
19728;DHT22;10015;52.530;13.390;2023-11-21T01:24:12;8.90;99.90
19728;DHT22;10015;52.530;13.390;2023-11-21T01:26:38;8.90;99.90
19728;DHT22;10015;52.530;13.390;2023-11-21T01:29:04;8.90;99.90
19728;DHT22;10015;52.530;13.390;2023-11-21T01:31:30;8.90;99.90
19728;DHT22;10015;52.530;13.390;2023-11-21T01:33:57;8.80;99.90
19728;DHT22;10015;52.530;13.390;2023-11-21T01:36:23;8.80;99.90
19728;DHT22;10015;52.530;13.390;2023-11-21T01:38:49;8.80;99.90
19728;DHT22;10015;52.530;13.390;2023-11-21T01:41:15;8.80;99.90
19728;DHT22;10015;52.530;13.390;2023-11-21T01:43:41;8.90;99.90
19728;DHT22;10015;52.530;13.390;2023-11-21T01:46:08;8.80;99.90
19728;DHT22;10015;52.530;13.390;2023-11-21T01:48:35;8.90;99.90
19728;DHT22;10015;52.530;13.390;2023-11-21T01:51:01;8.80;99.90
19728;DHT22;10015;52.530;13.390;2023-11-21T01:53:28;8.70;99.90
19728;DHT22;10015;52.530;13.390;2023-11-21T01:55:55;8.60;99.90
19728;DHT22;10015;52.530;13.390;2023-11-21T01:58:22;8.50;99.90
19728;DHT22;10015;52.530;13.390;2023-11-21T02:00:48;8.50;99.90
19728;DHT22;10015;52.530;13.390;2023-11-21T02:03:17;8.40;99.90
19728;DHT22;10015;52.530;13.390;2023-11-21T02:05:43;8.40;99.90
19728;DHT22;10015;52.530;13.390;2023-11-21T02:08:08;8.40;99.90
19728;DHT22;10015;52.530;13.390;2023-11-21T02:10:35;8.30;99.90
19728;DHT22;10015;52.530;13.390;2023-11-21T02:13:03;8.20;99.90
19728;DHT22;10015;52.530;13.390;2023-11-21T02:15:29;8.30;99.90
19728;DHT22;10015;52.530;13.390;2023-11-21T02:17:55;8.30;99.90
19728;DHT22;10015;52.530;13.390;2023-11-21T02:20:24;8.40;99.90
19728;DHT22;10015;52.530;13.390;2023-11-21T02:22:56;8.40;99.90
19728;DHT22;10015;52.530;13.390;2023-11-21T02:25:32;8.40;99.90
19728;DHT22;10015;52.530;13.390;2023-11-21T02:28:03;8.40;99.90
19728;DHT22;10015;52.530;13.390;2023-11-21T02:30:30;8.40;99.90
19728;DHT22;10015;52.530;13.390;2023-11-21T02:32:57;8.50;99.90
19728;DHT22;10015;52.530;13.390;2023-11-21T02:35:25;8.40;99.90
19728;DHT22;10015;52.530;13.390;2023-11-21T02:37:54;8.40;99.90
19728;DHT22;10015;52.530;13.390;2023-11-21T02:40:20;8.40;99.90
19728;DHT22;10015;52.530;13.390;2023-11-21T02:42:50;8.40;99.90
19728;DHT22;10015;52.530;13.390;2023-11-21T02:45:18;8.40;99.90
19728;DHT22;10015;52.530;13.390;2023-11-21T02:47:46;8.40;99.90
19728;DHT22;10015;52.530;13.390;2023-11-21T02:50:13;8.30;99.90
19728;DHT22;10015;52.530;13.390;2023-11-21T02:52:39;8.30;99.90
19728;DHT22;10015;52.530;13.390;2023-11-21T02:55:08;8.30;99.90
19728;DHT22;10015;52.530;13.390;2023-11-21T02:57:34;8.30;99.90
19728;DHT22;10015;52.530;13.390;2023-11-21T03:00:00;8.30;99.90
19728;DHT22;10015;52.530;13.390;2023-11-21T03:02:26;8.30;99.90
19728;DHT22;10015;52.530;13.390;2023-11-21T03:04:52;8.20;99.90
19728;DHT22;10015;52.530;13.390;2023-11-21T03:07:18;8.30;99.90
19728;DHT22;10015;52.530;13.390;2023-11-21T03:09:45;8.30;99.90
19728;DHT22;10015;52.530;13.390;2023-11-21T03:12:11;8.10;99.90
19728;DHT22;10015;52.530;13.390;2023-11-21T03:14:41;8.20;99.90
19728;DHT22;10015;52.530;13.390;2023-11-21T03:17:07;8.20;99.90
19728;DHT22;10015;52.530;13.390;2023-11-21T03:19:33;8.30;99.90
19728;DHT22;10015;52.530;13.390;2023-11-21T03:21:59;8.20;99.90
19728;DHT22;10015;52.530;13.390;2023-11-21T03:24:25;8.20;99.90
19728;DHT22;10015;52.530;13.390;2023-11-21T03:26:52;8.10;99.90
19728;DHT22;10015;52.530;13.390;2023-11-21T03:29:18;8.10;99.90
19728;DHT22;10015;52.530;13.390;2023-11-21T03:31:44;8.00;99.90
19728;DHT22;10015;52.530;13.390;2023-11-21T03:34:15;8.00;99.90
19728;DHT22;10015;52.530;13.390;2023-11-21T03:36:42;8.00;99.90
19728;DHT22;10015;52.530;13.390;2023-11-21T03:39:07;8.00;99.90
19728;DHT22;10015;52.530;13.390;2023-11-21T03:41:33;8.00;99.90
19728;DHT22;10015;52.530;13.390;2023-11-21T03:43:59;7.90;99.90
19728;DHT22;10015;52.530;13.390;2023-11-21T03:46:25;7.90;99.90
19728;DHT22;10015;52.530;13.390;2023-11-21T03:48:51;7.90;99.90
19728;DHT22;10015;52.530;13.390;2023-11-21T03:51:17;7.90;99.90
19728;DHT22;10015;52.530;13.390;2023-11-21T03:53:43;7.90;99.90
19728;DHT22;10015;52.530;13.390;2023-11-21T03:56:10;7.90;99.90
19728;DHT22;10015;52.530;13.390;2023-11-21T03:58:36;7.90;99.90
19728;DHT22;10015;52.530;13.390;2023-11-21T04:01:01;7.80;99.90
19728;DHT22;10015;52.530;13.390;2023-11-21T04:03:27;7.70;99.90
19728;DHT22;10015;52.530;13.390;2023-11-21T04:05:53;7.70;99.90
19728;DHT22;10015;52.530;13.390;2023-11-21T04:08:19;7.70;99.90
19728;DHT22;10015;52.530;13.390;2023-11-21T04:10:45;7.80;99.90
19728;DHT22;10015;52.530;13.390;2023-11-21T04:13:11;7.80;99.90
19728;DHT22;10015;52.530;13.390;2023-11-21T04:15:37;7.80;99.90
19728;DHT22;10015;52.530;13.390;2023-11-21T04:18:03;7.90;99.90
19728;DHT22;10015;52.530;13.390;2023-11-21T04:20:28;7.90;99.90
19728;DHT22;10015;52.530;13.390;2023-11-21T04:22:54;7.90;99.90
19728;DHT22;10015;52.530;13.390;2023-11-21T04:25:20;7.90;99.90
19728;DHT22;10015;52.530;13.390;2023-11-21T04:27:49;7.90;99.90
19728;DHT22;10015;52.530;13.390;2023-11-21T04:30:15;7.80;99.90
19728;DHT22;10015;52.530;13.390;2023-11-21T04:32:41;7.90;99.90
19728;DHT22;10015;52.530;13.390;2023-11-21T04:35:08;7.90;99.90
19728;DHT22;10015;52.530;13.390;2023-11-21T04:37:34;8.00;99.90
19728;DHT22;10015;52.530;13.390;2023-11-21T04:40:06;8.00;99.90
19728;DHT22;10015;52.530;13.390;2023-11-21T04:42:36;8.00;99.90
19728;DHT22;10015;52.530;13.390;2023-11-21T04:45:05;7.90;99.90
19728;DHT22;10015;52.530;13.390;2023-11-21T04:47:35;7.90;99.90
19728;DHT22;10015;52.530;13.390;2023-11-21T04:50:03;8.00;99.90
19728;DHT22;10015;52.530;13.390;2023-11-21T04:52:29;8.00;99.90
19728;DHT22;10015;52.530;13.390;2023-11-21T04:54:55;8.00;99.90
19728;DHT22;10015;52.530;13.390;2023-11-21T04:57:23;8.10;99.90
19728;DHT22;10015;52.530;13.390;2023-11-21T04:59:49;8.10;99.90
19728;DHT22;10015;52.530;13.390;2023-11-21T05:02:16;8.20;99.90
19728;DHT22;10015;52.530;13.390;2023-11-21T05:04:42;8.20;99.90
19728;DHT22;10015;52.530;13.390;2023-11-21T05:07:08;8.20;99.90
19728;DHT22;10015;52.530;13.390;2023-11-21T05:09:34;8.10;99.90
19728;DHT22;10015;52.530;13.390;2023-11-21T05:12:01;8.10;99.90
19728;DHT22;10015;52.530;13.390;2023-11-21T05:14:28;8.20;99.90
19728;DHT22;10015;52.530;13.390;2023-11-21T05:16:54;8.20;99.90
19728;DHT22;10015;52.530;13.390;2023-11-21T05:19:20;8.10;99.90
19728;DHT22;10015;52.530;13.390;2023-11-21T05:21:49;8.00;99.90
19728;DHT22;10015;52.530;13.390;2023-11-21T05:24:15;8.00;99.90
19728;DHT22;10015;52.530;13.390;2023-11-21T05:26:44;7.90;99.90
19728;DHT22;10015;52.530;13.390;2023-11-21T05:29:10;7.90;99.90
19728;DHT22;10015;52.530;13.390;2023-11-21T05:31:36;7.90;99.90
19728;DHT22;10015;52.530;13.390;2023-11-21T05:34:04;7.90;99.90
19728;DHT22;10015;52.530;13.390;2023-11-21T05:36:31;7.80;99.90
19728;DHT22;10015;52.530;13.390;2023-11-21T05:38:57;7.80;99.90
19728;DHT22;10015;52.530;13.390;2023-11-21T05:41:22;7.80;99.90
19728;DHT22;10015;52.530;13.390;2023-11-21T05:43:49;7.90;99.90
19728;DHT22;10015;52.530;13.390;2023-11-21T05:46:15;7.90;99.90
19728;DHT22;10015;52.530;13.390;2023-11-21T05:48:40;7.90;99.90
19728;DHT22;10015;52.530;13.390;2023-11-21T05:51:08;7.90;99.90
19728;DHT22;10015;52.530;13.390;2023-11-21T05:53:34;7.90;99.90
19728;DHT22;10015;52.530;13.390;2023-11-21T05:56:00;8.00;99.90
19728;DHT22;10015;52.530;13.390;2023-11-21T05:58:26;7.90;99.90
19728;DHT22;10015;52.530;13.390;2023-11-21T06:00:52;7.90;99.90
19728;DHT22;10015;52.530;13.390;2023-11-21T06:03:18;7.80;99.90
19728;DHT22;10015;52.530;13.390;2023-11-21T06:05:44;7.80;99.90
19728;DHT22;10015;52.530;13.390;2023-11-21T06:08:10;7.90;99.90
19728;DHT22;10015;52.530;13.390;2023-11-21T06:10:36;7.90;99.90
19728;DHT22;10015;52.530;13.390;2023-11-21T06:13:02;7.90;99.90
19728;DHT22;10015;52.530;13.390;2023-11-21T06:15:29;8.00;99.90
19728;DHT22;10015;52.530;13.390;2023-11-21T06:17:55;7.90;99.90
19728;DHT22;10015;52.530;13.390;2023-11-21T06:20:22;7.90;99.90
19728;DHT22;10015;52.530;13.390;2023-11-21T06:22:50;7.90;99.90
19728;DHT22;10015;52.530;13.390;2023-11-21T06:25:16;8.00;99.90
19728;DHT22;10015;52.530;13.390;2023-11-21T06:27:47;7.90;99.90
19728;DHT22;10015;52.530;13.390;2023-11-21T06:30:14;8.00;99.90
19728;DHT22;10015;52.530;13.390;2023-11-21T06:32:41;8.00;99.90
19728;DHT22;10015;52.530;13.390;2023-11-21T06:35:09;7.90;99.90
19728;DHT22;10015;52.530;13.390;2023-11-21T06:37:36;7.90;99.90
19728;DHT22;10015;52.530;13.390;2023-11-21T06:40:02;7.80;99.90
19728;DHT22;10015;52.530;13.390;2023-11-21T06:42:32;7.90;99.90
19728;DHT22;10015;52.530;13.390;2023-11-21T06:44:59;7.90;99.90
19728;DHT22;10015;52.530;13.390;2023-11-21T06:47:27;7.90;99.90
19728;DHT22;10015;52.530;13.390;2023-11-21T06:49:55;8.00;99.90
19728;DHT22;10015;52.530;13.390;2023-11-21T06:52:21;8.00;99.90
19728;DHT22;10015;52.530;13.390;2023-11-21T06:54:48;8.20;99.90
19728;DHT22;10015;52.530;13.390;2023-11-21T06:57:15;8.20;99.90
19728;DHT22;10015;52.530;13.390;2023-11-21T06:59:41;8.10;99.90
19728;DHT22;10015;52.530;13.390;2023-11-21T07:02:07;7.90;99.90
19728;DHT22;10015;52.530;13.390;2023-11-21T07:04:34;7.80;99.90
19728;DHT22;10015;52.530;13.390;2023-11-21T07:07:00;7.80;99.90
19728;DHT22;10015;52.530;13.390;2023-11-21T07:09:26;7.80;99.90
19728;DHT22;10015;52.530;13.390;2023-11-21T07:11:53;7.80;99.90
19728;DHT22;10015;52.530;13.390;2023-11-21T07:14:19;7.80;99.90
19728;DHT22;10015;52.530;13.390;2023-11-21T07:16:46;7.70;99.90
19728;DHT22;10015;52.530;13.390;2023-11-21T07:19:13;7.60;99.90
19728;DHT22;10015;52.530;13.390;2023-11-21T07:21:39;7.60;99.90
19728;DHT22;10015;52.530;13.390;2023-11-21T07:24:06;7.60;99.90
19728;DHT22;10015;52.530;13.390;2023-11-21T07:26:33;7.60;99.90
19728;DHT22;10015;52.530;13.390;2023-11-21T07:29:00;7.70;99.90
19728;DHT22;10015;52.530;13.390;2023-11-21T07:31:26;7.60;99.90
19728;DHT22;10015;52.530;13.390;2023-11-21T07:33:52;7.60;99.90
19728;DHT22;10015;52.530;13.390;2023-11-21T07:36:22;7.60;99.90
19728;DHT22;10015;52.530;13.390;2023-11-21T07:38:47;7.60;99.90
19728;DHT22;10015;52.530;13.390;2023-11-21T07:41:14;7.50;99.90
19728;DHT22;10015;52.530;13.390;2023-11-21T07:43:46;7.40;99.90
19728;DHT22;10015;52.530;13.390;2023-11-21T07:46:13;7.40;99.90
19728;DHT22;10015;52.530;13.390;2023-11-21T07:48:40;7.40;99.90
19728;DHT22;10015;52.530;13.390;2023-11-21T07:51:06;7.50;99.90
19728;DHT22;10015;52.530;13.390;2023-11-21T07:53:33;7.50;99.90
19728;DHT22;10015;52.530;13.390;2023-11-21T07:56:04;7.50;99.90
19728;DHT22;10015;52.530;13.390;2023-11-21T07:58:30;7.60;99.90
19728;DHT22;10015;52.530;13.390;2023-11-21T08:00:56;7.60;99.90
19728;DHT22;10015;52.530;13.390;2023-11-21T08:03:22;7.60;99.90
19728;DHT22;10015;52.530;13.390;2023-11-21T08:05:48;7.60;99.90
19728;DHT22;10015;52.530;13.390;2023-11-21T08:08:15;7.60;99.90
19728;DHT22;10015;52.530;13.390;2023-11-21T08:10:47;7.50;99.90
19728;DHT22;10015;52.530;13.390;2023-11-21T08:13:14;7.60;99.90
19728;DHT22;10015;52.530;13.390;2023-11-21T08:15:43;7.60;99.90
19728;DHT22;10015;52.530;13.390;2023-11-21T08:18:12;7.60;99.90
19728;DHT22;10015;52.530;13.390;2023-11-21T08:20:40;7.60;99.90
19728;DHT22;10015;52.530;13.390;2023-11-21T08:23:09;7.50;99.90
19728;DHT22;10015;52.530;13.390;2023-11-21T08:25:35;7.50;99.90
19728;DHT22;10015;52.530;13.390;2023-11-21T08:28:04;7.50;99.90
19728;DHT22;10015;52.530;13.390;2023-11-21T08:30:31;7.50;99.90
19728;DHT22;10015;52.530;13.390;2023-11-21T08:33:01;7.50;99.90
19728;DHT22;10015;52.530;13.390;2023-11-21T08:35:29;7.40;99.90
19728;DHT22;10015;52.530;13.390;2023-11-21T08:37:56;7.40;99.90
19728;DHT22;10015;52.530;13.390;2023-11-21T08:40:25;7.30;99.90
19728;DHT22;10015;52.530;13.390;2023-11-21T08:42:51;7.40;99.90
19728;DHT22;10015;52.530;13.390;2023-11-21T08:45:21;7.30;99.90
19728;DHT22;10015;52.530;13.390;2023-11-21T08:47:48;7.40;99.90
19728;DHT22;10015;52.530;13.390;2023-11-21T08:50:17;7.40;99.90
19728;DHT22;10015;52.530;13.390;2023-11-21T08:52:44;7.40;99.90
19728;DHT22;10015;52.530;13.390;2023-11-21T08:55:12;7.30;99.90
19728;DHT22;10015;52.530;13.390;2023-11-21T08:57:39;7.30;99.90
19728;DHT22;10015;52.530;13.390;2023-11-21T09:00:07;7.30;99.90
19728;DHT22;10015;52.530;13.390;2023-11-21T09:02:40;7.30;99.90
19728;DHT22;10015;52.530;13.390;2023-11-21T09:05:13;7.40;99.90
19728;DHT22;10015;52.530;13.390;2023-11-21T09:07:41;7.30;99.90
19728;DHT22;10015;52.530;13.390;2023-11-21T09:10:08;7.30;99.90
19728;DHT22;10015;52.530;13.390;2023-11-21T09:12:41;7.20;99.90
19728;DHT22;10015;52.530;13.390;2023-11-21T09:15:10;7.20;99.90
19728;DHT22;10015;52.530;13.390;2023-11-21T09:17:38;7.10;99.90
19728;DHT22;10015;52.530;13.390;2023-11-21T09:20:19;7.10;99.90
19728;DHT22;10015;52.530;13.390;2023-11-21T09:22:49;7.10;99.90
19728;DHT22;10015;52.530;13.390;2023-11-21T09:25:15;7.10;99.90
19728;DHT22;10015;52.530;13.390;2023-11-21T09:27:45;7.10;99.90
19728;DHT22;10015;52.530;13.390;2023-11-21T09:30:17;7.10;99.90
19728;DHT22;10015;52.530;13.390;2023-11-21T09:32:43;7.20;99.90
19728;DHT22;10015;52.530;13.390;2023-11-21T09:35:13;7.20;99.90
19728;DHT22;10015;52.530;13.390;2023-11-21T09:37:40;7.20;99.90
19728;DHT22;10015;52.530;13.390;2023-11-21T09:40:10;7.20;99.90
19728;DHT22;10015;52.530;13.390;2023-11-21T09:42:48;7.20;99.90
19728;DHT22;10015;52.530;13.390;2023-11-21T09:45:27;7.30;99.90
19728;DHT22;10015;52.530;13.390;2023-11-21T09:47:55;7.20;99.90
19728;DHT22;10015;52.530;13.390;2023-11-21T09:50:22;7.20;99.90
19728;DHT22;10015;52.530;13.390;2023-11-21T09:52:54;7.10;99.90
19728;DHT22;10015;52.530;13.390;2023-11-21T09:55:21;7.10;99.90
19728;DHT22;10015;52.530;13.390;2023-11-21T09:57:49;6.90;99.90
19728;DHT22;10015;52.530;13.390;2023-11-21T10:00:16;6.90;99.90
19728;DHT22;10015;52.530;13.390;2023-11-21T10:02:47;6.90;99.90
19728;DHT22;10015;52.530;13.390;2023-11-21T10:05:13;6.90;99.90
19728;DHT22;10015;52.530;13.390;2023-11-21T10:07:42;6.80;99.90
19728;DHT22;10015;52.530;13.390;2023-11-21T10:10:10;6.80;99.90
19728;DHT22;10015;52.530;13.390;2023-11-21T10:12:37;6.70;99.90
19728;DHT22;10015;52.530;13.390;2023-11-21T10:15:08;6.70;99.90
19728;DHT22;10015;52.530;13.390;2023-11-21T10:17:38;6.60;99.90
19728;DHT22;10015;52.530;13.390;2023-11-21T10:20:11;6.60;99.90
19728;DHT22;10015;52.530;13.390;2023-11-21T10:22:43;6.60;99.90
19728;DHT22;10015;52.530;13.390;2023-11-21T10:25:09;6.60;99.90
19728;DHT22;10015;52.530;13.390;2023-11-21T10:27:39;6.60;99.90
19728;DHT22;10015;52.530;13.390;2023-11-21T10:30:09;6.70;99.90
19728;DHT22;10015;52.530;13.390;2023-11-21T10:32:42;6.70;99.90
19728;DHT22;10015;52.530;13.390;2023-11-21T10:35:12;6.80;99.90
19728;DHT22;10015;52.530;13.390;2023-11-21T10:37:39;6.80;99.90
19728;DHT22;10015;52.530;13.390;2023-11-21T10:40:10;6.80;99.90
19728;DHT22;10015;52.530;13.390;2023-11-21T10:42:42;6.80;99.90
19728;DHT22;10015;52.530;13.390;2023-11-21T10:45:09;6.80;99.90
19728;DHT22;10015;52.530;13.390;2023-11-21T10:47:44;6.80;99.90
19728;DHT22;10015;52.530;13.390;2023-11-21T10:50:10;6.80;99.90
19728;DHT22;10015;52.530;13.390;2023-11-21T10:52:41;6.70;99.90
19728;DHT22;10015;52.530;13.390;2023-11-21T10:55:19;6.70;99.90
19728;DHT22;10015;52.530;13.390;2023-11-21T10:57:55;6.70;99.90
19728;DHT22;10015;52.530;13.390;2023-11-21T11:00:24;6.70;99.90
19728;DHT22;10015;52.530;13.390;2023-11-21T11:02:52;6.60;99.90
19728;DHT22;10015;52.530;13.390;2023-11-21T11:05:26;6.60;99.90
19728;DHT22;10015;52.530;13.390;2023-11-21T11:08:05;6.50;99.90
19728;DHT22;10015;52.530;13.390;2023-11-21T11:10:34;6.50;99.90
19728;DHT22;10015;52.530;13.390;2023-11-21T11:13:01;6.50;99.90
19728;DHT22;10015;52.530;13.390;2023-11-21T11:15:28;6.50;99.90
19728;DHT22;10015;52.530;13.390;2023-11-21T11:17:55;6.50;99.90
19728;DHT22;10015;52.530;13.390;2023-11-21T11:20:31;6.40;99.90
19728;DHT22;10015;52.530;13.390;2023-11-21T11:35:38;6.60;99.90
19728;DHT22;10015;52.530;13.390;2023-11-21T11:38:48;6.50;99.90
19728;DHT22;10015;52.530;13.390;2023-11-21T11:45:41;6.30;99.90
19728;DHT22;10015;52.530;13.390;2023-11-21T11:48:45;6.30;99.90
19728;DHT22;10015;52.530;13.390;2023-11-21T11:55:27;6.40;99.90
19728;DHT22;10015;52.530;13.390;2023-11-21T11:58:06;6.40;99.90
19728;DHT22;10015;52.530;13.390;2023-11-21T12:00:49;6.50;99.90
19728;DHT22;10015;52.530;13.390;2023-11-21T12:12:09;6.50;99.90
19728;DHT22;10015;52.530;13.390;2023-11-21T12:14:36;6.50;99.90
19728;DHT22;10015;52.530;13.390;2023-11-21T12:20:07;6.60;99.90
19728;DHT22;10015;52.530;13.390;2023-11-21T12:22:57;6.60;99.90
19728;DHT22;10015;52.530;13.390;2023-11-21T12:26:15;6.70;99.90
19728;DHT22;10015;52.530;13.390;2023-11-21T12:28:55;6.70;99.90
19728;DHT22;10015;52.530;13.390;2023-11-21T12:31:31;6.70;99.90
19728;DHT22;10015;52.530;13.390;2023-11-21T12:34:04;6.70;99.90
19728;DHT22;10015;52.530;13.390;2023-11-21T12:36:34;6.60;99.90
19728;DHT22;10015;52.530;13.390;2023-11-21T12:39:07;6.50;99.90
19728;DHT22;10015;52.530;13.390;2023-11-21T12:42:07;6.50;99.90
19728;DHT22;10015;52.530;13.390;2023-11-21T12:48:07;6.30;99.90
19728;DHT22;10015;52.530;13.390;2023-11-21T12:51:14;6.30;99.90
19728;DHT22;10015;52.530;13.390;2023-11-21T12:53:50;6.30;99.90
19728;DHT22;10015;52.530;13.390;2023-11-21T13:00:36;6.30;99.90
19728;DHT22;10015;52.530;13.390;2023-11-21T13:03:09;6.30;99.90
19728;DHT22;10015;52.530;13.390;2023-11-21T13:06:32;6.40;99.90
19728;DHT22;10015;52.530;13.390;2023-11-21T13:09:20;6.60;99.90
19728;DHT22;10015;52.530;13.390;2023-11-21T13:13:16;6.60;99.90
19728;DHT22;10015;52.530;13.390;2023-11-21T13:16:56;6.60;99.90
19728;DHT22;10015;52.530;13.390;2023-11-21T13:20:32;6.50;99.90
19728;DHT22;10015;52.530;13.390;2023-11-21T13:27:23;6.20;99.90
19728;DHT22;10015;52.530;13.390;2023-11-21T13:30:00;6.10;99.90
19728;DHT22;10015;52.530;13.390;2023-11-21T13:33:05;6.20;99.90
19728;DHT22;10015;52.530;13.390;2023-11-21T13:35:40;6.10;99.90
19728;DHT22;10015;52.530;13.390;2023-11-21T13:38:18;6.10;99.90
19728;DHT22;10015;52.530;13.390;2023-11-21T13:41:51;6.20;99.90
19728;DHT22;10015;52.530;13.390;2023-11-21T13:45:21;6.20;99.90
19728;DHT22;10015;52.530;13.390;2023-11-21T13:48:20;6.10;99.90
19728;DHT22;10015;52.530;13.390;2023-11-21T13:51:01;6.00;99.90
19728;DHT22;10015;52.530;13.390;2023-11-21T13:53:54;5.90;99.90
19728;DHT22;10015;52.530;13.390;2023-11-21T13:56:52;5.90;99.90
19728;DHT22;10015;52.530;13.390;2023-11-21T13:59:35;5.90;99.90
19728;DHT22;10015;52.530;13.390;2023-11-21T14:02:10;5.80;99.90
19728;DHT22;10015;52.530;13.390;2023-11-21T14:05:34;5.80;99.90
19728;DHT22;10015;52.530;13.390;2023-11-21T14:08:17;5.60;99.90
19728;DHT22;10015;52.530;13.390;2023-11-21T14:11:01;5.60;99.90
19728;DHT22;10015;52.530;13.390;2023-11-21T14:13:32;5.60;99.90
19728;DHT22;10015;52.530;13.390;2023-11-21T14:16:03;5.70;99.90
19728;DHT22;10015;52.530;13.390;2023-11-21T14:18:38;5.60;99.90
19728;DHT22;10015;52.530;13.390;2023-11-21T14:21:35;5.60;99.90
19728;DHT22;10015;52.530;13.390;2023-11-21T14:24:30;5.60;99.90
19728;DHT22;10015;52.530;13.390;2023-11-21T14:30:28;5.60;99.90
19728;DHT22;10015;52.530;13.390;2023-11-21T14:33:11;5.50;99.90
19728;DHT22;10015;52.530;13.390;2023-11-21T14:35:40;5.50;99.90
19728;DHT22;10015;52.530;13.390;2023-11-21T14:38:21;5.50;99.90
19728;DHT22;10015;52.530;13.390;2023-11-21T14:41:07;5.60;99.90
19728;DHT22;10015;52.530;13.390;2023-11-21T14:43:45;5.50;99.90
19728;DHT22;10015;52.530;13.390;2023-11-21T14:49:28;5.30;99.90
19728;DHT22;10015;52.530;13.390;2023-11-21T14:52:45;5.20;99.90
19728;DHT22;10015;52.530;13.390;2023-11-21T14:55:29;5.20;99.90
19728;DHT22;10015;52.530;13.390;2023-11-21T14:58:05;5.20;99.90
19728;DHT22;10015;52.530;13.390;2023-11-21T15:00:36;5.10;99.90
19728;DHT22;10015;52.530;13.390;2023-11-21T15:03:04;5.10;99.90
19728;DHT22;10015;52.530;13.390;2023-11-21T15:09:15;5.20;99.90
19728;DHT22;10015;52.530;13.390;2023-11-21T15:11:41;5.40;99.90
19728;DHT22;10015;52.530;13.390;2023-11-21T15:14:20;5.30;99.90
19728;DHT22;10015;52.530;13.390;2023-11-21T15:17:03;5.40;99.90
19728;DHT22;10015;52.530;13.390;2023-11-21T15:19:30;5.30;99.90
19728;DHT22;10015;52.530;13.390;2023-11-21T15:22:10;5.20;99.90
19728;DHT22;10015;52.530;13.390;2023-11-21T15:24:53;5.10;99.90
19728;DHT22;10015;52.530;13.390;2023-11-21T15:27:39;5.00;99.90
19728;DHT22;10015;52.530;13.390;2023-11-21T15:30:31;5.00;99.90
19728;DHT22;10015;52.530;13.390;2023-11-21T15:33:04;5.00;99.90
19728;DHT22;10015;52.530;13.390;2023-11-21T15:35:32;5.00;99.90
19728;DHT22;10015;52.530;13.390;2023-11-21T15:38:03;5.10;99.90
19728;DHT22;10015;52.530;13.390;2023-11-21T15:40:30;5.00;99.90
19728;DHT22;10015;52.530;13.390;2023-11-21T15:42:57;5.10;99.90
19728;DHT22;10015;52.530;13.390;2023-11-21T15:45:24;5.10;99.90
19728;DHT22;10015;52.530;13.390;2023-11-21T15:47:52;5.10;99.90
19728;DHT22;10015;52.530;13.390;2023-11-21T15:50:24;5.10;99.90
19728;DHT22;10015;52.530;13.390;2023-11-21T15:52:51;5.20;99.90
19728;DHT22;10015;52.530;13.390;2023-11-21T15:55:17;5.20;99.90
19728;DHT22;10015;52.530;13.390;2023-11-21T15:57:47;5.30;99.90
19728;DHT22;10015;52.530;13.390;2023-11-21T16:00:18;5.30;99.90
19728;DHT22;10015;52.530;13.390;2023-11-21T16:02:47;5.20;99.90
19728;DHT22;10015;52.530;13.390;2023-11-21T16:05:14;5.20;99.90
19728;DHT22;10015;52.530;13.390;2023-11-21T16:07:44;5.00;99.90
19728;DHT22;10015;52.530;13.390;2023-11-21T16:10:10;5.00;99.90
19728;DHT22;10015;52.530;13.390;2023-11-21T16:12:37;5.00;99.90
19728;DHT22;10015;52.530;13.390;2023-11-21T16:15:09;5.10;99.90
19728;DHT22;10015;52.530;13.390;2023-11-21T16:17:36;5.00;99.90
19728;DHT22;10015;52.530;13.390;2023-11-21T16:20:06;5.00;99.90
19728;DHT22;10015;52.530;13.390;2023-11-21T16:22:37;5.10;99.90
19728;DHT22;10015;52.530;13.390;2023-11-21T16:25:03;5.00;99.90
19728;DHT22;10015;52.530;13.390;2023-11-21T16:27:31;5.00;99.90
19728;DHT22;10015;52.530;13.390;2023-11-21T16:29:58;5.00;99.90
19728;DHT22;10015;52.530;13.390;2023-11-21T16:32:24;5.00;99.90
19728;DHT22;10015;52.530;13.390;2023-11-21T16:34:50;4.90;99.90
19728;DHT22;10015;52.530;13.390;2023-11-21T16:37:16;5.00;99.90
19728;DHT22;10015;52.530;13.390;2023-11-21T16:39:42;5.00;99.90
19728;DHT22;10015;52.530;13.390;2023-11-21T16:42:08;5.50;99.90
19728;DHT22;10015;52.530;13.390;2023-11-21T16:44:35;6.60;99.90
19728;DHT22;10015;52.530;13.390;2023-11-21T16:47:02;7.80;99.90
19728;DHT22;10015;52.530;13.390;2023-11-21T16:49:32;9.10;99.90